sensor_id;sensor_type;location;lat;lon;timestamp;P1;durP1;ratioP1;P2;durP2;ratioP2
33501;SDS011;22396;51.070;4.974;2023-07-31T00:00:10;10.90;;;2.75;;
33501;SDS011;22396;51.070;4.974;2023-07-31T00:02:36;10.27;;;2.70;;
33501;SDS011;22396;51.070;4.974;2023-07-31T00:05:01;10.93;;;2.90;;
33501;SDS011;22396;51.070;4.974;2023-07-31T00:07:31;7.00;;;2.42;;
33501;SDS011;22396;51.070;4.974;2023-07-31T00:09:57;11.93;;;3.67;;
33501;SDS011;22396;51.070;4.974;2023-07-31T00:12:23;15.32;;;3.28;;
33501;SDS011;22396;51.070;4.974;2023-07-31T00:14:48;10.98;;;2.60;;
33501;SDS011;22396;51.070;4.974;2023-07-31T00:17:13;13.30;;;3.22;;
33501;SDS011;22396;51.070;4.974;2023-07-31T00:19:39;10.05;;;2.83;;
33501;SDS011;22396;51.070;4.974;2023-07-31T00:22:04;12.88;;;3.30;;
33501;SDS011;22396;51.070;4.974;2023-07-31T00:24:29;18.33;;;3.50;;
33501;SDS011;22396;51.070;4.974;2023-07-31T00:26:55;11.02;;;3.53;;
33501;SDS011;22396;51.070;4.974;2023-07-31T00:29:20;11.82;;;3.35;;
33501;SDS011;22396;51.070;4.974;2023-07-31T00:31:45;13.57;;;3.10;;
33501;SDS011;22396;51.070;4.974;2023-07-31T00:34:13;12.88;;;3.00;;
33501;SDS011;22396;51.070;4.974;2023-07-31T00:36:38;11.80;;;2.65;;
33501;SDS011;22396;51.070;4.974;2023-07-31T00:39:03;11.98;;;3.38;;
33501;SDS011;22396;51.070;4.974;2023-07-31T00:41:29;12.70;;;3.20;;
33501;SDS011;22396;51.070;4.974;2023-07-31T00:43:54;18.27;;;3.05;;
33501;SDS011;22396;51.070;4.974;2023-07-31T00:46:20;11.57;;;2.90;;
33501;SDS011;22396;51.070;4.974;2023-07-31T00:48:45;13.23;;;2.83;;
33501;SDS011;22396;51.070;4.974;2023-07-31T00:51:10;14.32;;;3.33;;
33501;SDS011;22396;51.070;4.974;2023-07-31T00:53:36;14.30;;;3.30;;
33501;SDS011;22396;51.070;4.974;2023-07-31T00:56:01;15.20;;;3.40;;
33501;SDS011;22396;51.070;4.974;2023-07-31T00:58:27;13.07;;;2.70;;
33501;SDS011;22396;51.070;4.974;2023-07-31T01:00:57;12.07;;;2.90;;
33501;SDS011;22396;51.070;4.974;2023-07-31T01:03:23;14.52;;;3.38;;
33501;SDS011;22396;51.070;4.974;2023-07-31T01:11:19;8.93;;;3.03;;
33501;SDS011;22396;51.070;4.974;2023-07-31T01:13:44;13.23;;;2.92;;
33501;SDS011;22396;51.070;4.974;2023-07-31T01:16:10;16.63;;;3.45;;
33501;SDS011;22396;51.070;4.974;2023-07-31T01:18:36;12.27;;;2.85;;
33501;SDS011;22396;51.070;4.974;2023-07-31T01:21:03;13.40;;;3.28;;
33501;SDS011;22396;51.070;4.974;2023-07-31T01:23:36;14.90;;;2.85;;
33501;SDS011;22396;51.070;4.974;2023-07-31T01:26:03;10.77;;;3.13;;
33501;SDS011;22396;51.070;4.974;2023-07-31T01:28:36;13.23;;;3.20;;
33501;SDS011;22396;51.070;4.974;2023-07-31T01:31:04;14.73;;;3.00;;
33501;SDS011;22396;51.070;4.974;2023-07-31T01:33:32;10.20;;;2.65;;
33501;SDS011;22396;51.070;4.974;2023-07-31T01:35:57;12.35;;;2.85;;
33501;SDS011;22396;51.070;4.974;2023-07-31T01:38:23;12.45;;;3.10;;
33501;SDS011;22396;51.070;4.974;2023-07-31T01:40:52;10.15;;;3.25;;
33501;SDS011;22396;51.070;4.974;2023-07-31T01:43:17;12.90;;;3.75;;
33501;SDS011;22396;51.070;4.974;2023-07-31T01:45:43;12.07;;;3.25;;
33501;SDS011;22396;51.070;4.974;2023-07-31T01:48:08;11.30;;;3.33;;
33501;SDS011;22396;51.070;4.974;2023-07-31T01:50:33;11.63;;;3.35;;
33501;SDS011;22396;51.070;4.974;2023-07-31T01:53:01;14.57;;;3.90;;
33501;SDS011;22396;51.070;4.974;2023-07-31T01:55:27;14.80;;;4.00;;
33501;SDS011;22396;51.070;4.974;2023-07-31T01:57:52;7.88;;;2.47;;
33501;SDS011;22396;51.070;4.974;2023-07-31T02:00:18;11.75;;;2.85;;
33501;SDS011;22396;51.070;4.974;2023-07-31T02:02:43;17.90;;;3.75;;
33501;SDS011;22396;51.070;4.974;2023-07-31T02:05:08;8.57;;;2.83;;
33501;SDS011;22396;51.070;4.974;2023-07-31T02:07:33;12.90;;;3.30;;
33501;SDS011;22396;51.070;4.974;2023-07-31T02:10:02;9.23;;;2.70;;
33501;SDS011;22396;51.070;4.974;2023-07-31T02:12:27;11.77;;;3.08;;
33501;SDS011;22396;51.070;4.974;2023-07-31T02:14:58;12.73;;;3.13;;
33501;SDS011;22396;51.070;4.974;2023-07-31T02:17:24;16.17;;;3.58;;
33501;SDS011;22396;51.070;4.974;2023-07-31T02:19:49;13.45;;;3.38;;
33501;SDS011;22396;51.070;4.974;2023-07-31T02:22:14;12.23;;;3.10;;
33501;SDS011;22396;51.070;4.974;2023-07-31T02:24:43;15.85;;;3.30;;
33501;SDS011;22396;51.070;4.974;2023-07-31T02:27:08;13.63;;;2.90;;
33501;SDS011;22396;51.070;4.974;2023-07-31T02:29:33;11.60;;;3.58;;
33501;SDS011;22396;51.070;4.974;2023-07-31T02:31:58;13.90;;;3.22;;
33501;SDS011;22396;51.070;4.974;2023-07-31T02:34:24;11.70;;;3.00;;
33501;SDS011;22396;51.070;4.974;2023-07-31T02:36:49;13.20;;;3.05;;
33501;SDS011;22396;51.070;4.974;2023-07-31T02:39:14;12.93;;;3.60;;
33501;SDS011;22396;51.070;4.974;2023-07-31T02:41:39;15.73;;;3.42;;
33501;SDS011;22396;51.070;4.974;2023-07-31T02:44:05;15.32;;;2.75;;
33501;SDS011;22396;51.070;4.974;2023-07-31T02:46:30;8.23;;;3.58;;
33501;SDS011;22396;51.070;4.974;2023-07-31T02:48:55;10.80;;;3.10;;
33501;SDS011;22396;51.070;4.974;2023-07-31T02:51:20;14.65;;;3.85;;
33501;SDS011;22396;51.070;4.974;2023-07-31T02:53:49;11.48;;;2.95;;
33501;SDS011;22396;51.070;4.974;2023-07-31T02:56:14;13.27;;;3.53;;
33501;SDS011;22396;51.070;4.974;2023-07-31T02:58:40;10.25;;;3.15;;
33501;SDS011;22396;51.070;4.974;2023-07-31T03:01:05;11.48;;;3.50;;
33501;SDS011;22396;51.070;4.974;2023-07-31T03:03:30;13.77;;;3.55;;
33501;SDS011;22396;51.070;4.974;2023-07-31T03:06:01;10.88;;;3.40;;
33501;SDS011;22396;51.070;4.974;2023-07-31T03:08:26;13.52;;;3.38;;
33501;SDS011;22396;51.070;4.974;2023-07-31T03:10:51;13.73;;;3.55;;
33501;SDS011;22396;51.070;4.974;2023-07-31T03:13:19;9.30;;;3.20;;
33501;SDS011;22396;51.070;4.974;2023-07-31T03:15:47;10.63;;;3.72;;
33501;SDS011;22396;51.070;4.974;2023-07-31T03:18:13;10.68;;;3.13;;
33501;SDS011;22396;51.070;4.974;2023-07-31T03:20:41;15.38;;;4.05;;
33501;SDS011;22396;51.070;4.974;2023-07-31T03:23:07;15.85;;;4.05;;
33501;SDS011;22396;51.070;4.974;2023-07-31T03:25:32;14.18;;;3.85;;
33501;SDS011;22396;51.070;4.974;2023-07-31T03:28:00;13.13;;;3.78;;
33501;SDS011;22396;51.070;4.974;2023-07-31T03:30:25;15.75;;;3.97;;
33501;SDS011;22396;51.070;4.974;2023-07-31T03:32:50;13.13;;;4.40;;
33501;SDS011;22396;51.070;4.974;2023-07-31T03:35:15;11.13;;;4.22;;
33501;SDS011;22396;51.070;4.974;2023-07-31T03:37:41;9.38;;;3.65;;
33501;SDS011;22396;51.070;4.974;2023-07-31T03:40:06;11.32;;;3.78;;
33501;SDS011;22396;51.070;4.974;2023-07-31T03:42:32;8.32;;;3.22;;
33501;SDS011;22396;51.070;4.974;2023-07-31T03:44:57;12.93;;;3.58;;
33501;SDS011;22396;51.070;4.974;2023-07-31T03:47:26;15.23;;;3.55;;
33501;SDS011;22396;51.070;4.974;2023-07-31T03:49:51;14.00;;;3.92;;
33501;SDS011;22396;51.070;4.974;2023-07-31T03:52:16;11.18;;;3.30;;
33501;SDS011;22396;51.070;4.974;2023-07-31T03:54:41;14.73;;;4.32;;
33501;SDS011;22396;51.070;4.974;2023-07-31T03:57:09;12.77;;;3.75;;
33501;SDS011;22396;51.070;4.974;2023-07-31T03:59:34;11.35;;;3.15;;
33501;SDS011;22396;51.070;4.974;2023-07-31T04:02:00;15.48;;;3.58;;
33501;SDS011;22396;51.070;4.974;2023-07-31T04:04:25;9.85;;;3.30;;
33501;SDS011;22396;51.070;4.974;2023-07-31T04:06:53;7.22;;;3.13;;
33501;SDS011;22396;51.070;4.974;2023-07-31T04:09:19;15.05;;;3.80;;
33501;SDS011;22396;51.070;4.974;2023-07-31T04:11:44;11.32;;;3.55;;
33501;SDS011;22396;51.070;4.974;2023-07-31T04:14:09;7.93;;;3.65;;
33501;SDS011;22396;51.070;4.974;2023-07-31T04:16:35;11.48;;;3.75;;
33501;SDS011;22396;51.070;4.974;2023-07-31T04:19:02;11.48;;;3.70;;
33501;SDS011;22396;51.070;4.974;2023-07-31T04:21:28;7.40;;;3.33;;
33501;SDS011;22396;51.070;4.974;2023-07-31T04:23:56;11.40;;;3.22;;
33501;SDS011;22396;51.070;4.974;2023-07-31T04:26:21;10.93;;;3.78;;
33501;SDS011;22396;51.070;4.974;2023-07-31T04:28:47;13.23;;;3.58;;
33501;SDS011;22396;51.070;4.974;2023-07-31T04:31:12;12.68;;;3.70;;
33501;SDS011;22396;51.070;4.974;2023-07-31T04:33:39;9.77;;;3.40;;
33501;SDS011;22396;51.070;4.974;2023-07-31T04:36:05;9.30;;;3.47;;
33501;SDS011;22396;51.070;4.974;2023-07-31T04:38:30;13.45;;;4.22;;
33501;SDS011;22396;51.070;4.974;2023-07-31T04:40:55;9.50;;;3.92;;
33501;SDS011;22396;51.070;4.974;2023-07-31T04:43:21;13.02;;;4.22;;
33501;SDS011;22396;51.070;4.974;2023-07-31T04:45:46;7.88;;;3.60;;
33501;SDS011;22396;51.070;4.974;2023-07-31T04:48:12;8.52;;;3.67;;
33501;SDS011;22396;51.070;4.974;2023-07-31T04:50:38;9.80;;;4.03;;
33501;SDS011;22396;51.070;4.974;2023-07-31T04:53:03;8.85;;;3.47;;
33501;SDS011;22396;51.070;4.974;2023-07-31T04:55:28;12.13;;;3.92;;
33501;SDS011;22396;51.070;4.974;2023-07-31T04:57:54;8.30;;;3.72;;
33501;SDS011;22396;51.070;4.974;2023-07-31T05:00:19;10.27;;;3.47;;
33501;SDS011;22396;51.070;4.974;2023-07-31T05:02:44;10.45;;;3.67;;
33501;SDS011;22396;51.070;4.974;2023-07-31T05:05:10;8.15;;;4.00;;
33501;SDS011;22396;51.070;4.974;2023-07-31T05:07:35;10.55;;;3.50;;
33501;SDS011;22396;51.070;4.974;2023-07-31T05:10:00;7.35;;;3.63;;
33501;SDS011;22396;51.070;4.974;2023-07-31T05:12:25;12.52;;;3.63;;
33501;SDS011;22396;51.070;4.974;2023-07-31T05:14:51;8.18;;;3.08;;
33501;SDS011;22396;51.070;4.974;2023-07-31T05:17:16;7.25;;;3.63;;
33501;SDS011;22396;51.070;4.974;2023-07-31T05:19:41;10.73;;;3.83;;
33501;SDS011;22396;51.070;4.974;2023-07-31T05:22:07;9.40;;;3.50;;
33501;SDS011;22396;51.070;4.974;2023-07-31T05:24:32;14.27;;;4.15;;
33501;SDS011;22396;51.070;4.974;2023-07-31T05:26:58;11.55;;;3.45;;
33501;SDS011;22396;51.070;4.974;2023-07-31T05:29:23;13.60;;;3.80;;
33501;SDS011;22396;51.070;4.974;2023-07-31T05:31:51;9.82;;;3.78;;
33501;SDS011;22396;51.070;4.974;2023-07-31T05:34:16;9.98;;;3.75;;
33501;SDS011;22396;51.070;4.974;2023-07-31T05:36:42;10.90;;;3.30;;
33501;SDS011;22396;51.070;4.974;2023-07-31T05:39:07;6.05;;;3.35;;
33501;SDS011;22396;51.070;4.974;2023-07-31T05:41:33;10.68;;;3.60;;
33501;SDS011;22396;51.070;4.974;2023-07-31T05:43:59;6.70;;;3.42;;
33501;SDS011;22396;51.070;4.974;2023-07-31T05:46:24;8.55;;;2.83;;
33501;SDS011;22396;51.070;4.974;2023-07-31T05:48:50;7.35;;;3.40;;
33501;SDS011;22396;51.070;4.974;2023-07-31T05:51:15;9.00;;;3.17;;
33501;SDS011;22396;51.070;4.974;2023-07-31T05:53:40;8.30;;;3.42;;
33501;SDS011;22396;51.070;4.974;2023-07-31T05:56:06;8.93;;;3.35;;
33501;SDS011;22396;51.070;4.974;2023-07-31T05:58:31;7.00;;;3.22;;
33501;SDS011;22396;51.070;4.974;2023-07-31T06:00:56;9.70;;;3.47;;
33501;SDS011;22396;51.070;4.974;2023-07-31T06:03:24;9.88;;;3.33;;
33501;SDS011;22396;51.070;4.974;2023-07-31T06:05:52;8.68;;;3.17;;
33501;SDS011;22396;51.070;4.974;2023-07-31T06:08:18;7.00;;;2.88;;
33501;SDS011;22396;51.070;4.974;2023-07-31T06:10:43;7.70;;;2.92;;
33501;SDS011;22396;51.070;4.974;2023-07-31T06:13:08;10.35;;;3.63;;
33501;SDS011;22396;51.070;4.974;2023-07-31T06:15:34;8.80;;;3.08;;
33501;SDS011;22396;51.070;4.974;2023-07-31T06:17:59;9.75;;;2.85;;
33501;SDS011;22396;51.070;4.974;2023-07-31T06:20:26;6.35;;;3.00;;
33501;SDS011;22396;51.070;4.974;2023-07-31T06:22:52;10.77;;;2.90;;
33501;SDS011;22396;51.070;4.974;2023-07-31T06:25:17;6.43;;;2.97;;
33501;SDS011;22396;51.070;4.974;2023-07-31T06:27:42;7.05;;;3.40;;
33501;SDS011;22396;51.070;4.974;2023-07-31T06:30:08;6.65;;;2.90;;
33501;SDS011;22396;51.070;4.974;2023-07-31T06:32:33;7.03;;;3.25;;
33501;SDS011;22396;51.070;4.974;2023-07-31T06:34:59;6.63;;;3.28;;
33501;SDS011;22396;51.070;4.974;2023-07-31T06:37:24;7.20;;;3.28;;
33501;SDS011;22396;51.070;4.974;2023-07-31T06:39:49;8.60;;;3.40;;
33501;SDS011;22396;51.070;4.974;2023-07-31T06:42:14;8.02;;;3.25;;
33501;SDS011;22396;51.070;4.974;2023-07-31T06:44:40;11.40;;;3.47;;
33501;SDS011;22396;51.070;4.974;2023-07-31T06:47:05;8.25;;;3.20;;
33501;SDS011;22396;51.070;4.974;2023-07-31T06:49:30;8.77;;;3.70;;
33501;SDS011;22396;51.070;4.974;2023-07-31T06:51:59;12.23;;;3.83;;
33501;SDS011;22396;51.070;4.974;2023-07-31T06:54:24;13.05;;;4.15;;
33501;SDS011;22396;51.070;4.974;2023-07-31T06:56:49;8.05;;;3.58;;
33501;SDS011;22396;51.070;4.974;2023-07-31T06:59:15;8.77;;;3.08;;
33501;SDS011;22396;51.070;4.974;2023-07-31T07:01:40;10.55;;;3.65;;
33501;SDS011;22396;51.070;4.974;2023-07-31T07:04:08;9.57;;;3.67;;
33501;SDS011;22396;51.070;4.974;2023-07-31T07:06:33;10.15;;;3.10;;
33501;SDS011;22396;51.070;4.974;2023-07-31T07:09:01;10.18;;;3.13;;
33501;SDS011;22396;51.070;4.974;2023-07-31T07:11:26;6.72;;;3.00;;
33501;SDS011;22396;51.070;4.974;2023-07-31T07:13:51;13.13;;;3.50;;
33501;SDS011;22396;51.070;4.974;2023-07-31T07:16:17;9.63;;;3.72;;
33501;SDS011;22396;51.070;4.974;2023-07-31T07:18:42;6.47;;;2.00;;
33501;SDS011;22396;51.070;4.974;2023-07-31T07:21:08;7.38;;;3.00;;
33501;SDS011;22396;51.070;4.974;2023-07-31T07:23:33;8.85;;;3.25;;
33501;SDS011;22396;51.070;4.974;2023-07-31T07:25:59;7.32;;;3.03;;
33501;SDS011;22396;51.070;4.974;2023-07-31T07:28:24;10.75;;;3.50;;
33501;SDS011;22396;51.070;4.974;2023-07-31T07:30:55;8.60;;;3.05;;
33501;SDS011;22396;51.070;4.974;2023-07-31T07:33:20;14.07;;;3.30;;
33501;SDS011;22396;51.070;4.974;2023-07-31T07:35:48;6.30;;;3.25;;
33501;SDS011;22396;51.070;4.974;2023-07-31T07:38:14;8.52;;;2.85;;
33501;SDS011;22396;51.070;4.974;2023-07-31T07:40:42;12.80;;;3.38;;
33501;SDS011;22396;51.070;4.974;2023-07-31T07:43:08;7.85;;;3.35;;
33501;SDS011;22396;51.070;4.974;2023-07-31T07:45:33;8.38;;;3.33;;
33501;SDS011;22396;51.070;4.974;2023-07-31T07:47:58;13.48;;;3.72;;
33501;SDS011;22396;51.070;4.974;2023-07-31T07:50:24;10.48;;;3.05;;
33501;SDS011;22396;51.070;4.974;2023-07-31T07:52:49;8.18;;;3.30;;
33501;SDS011;22396;51.070;4.974;2023-07-31T07:55:15;11.98;;;3.38;;
33501;SDS011;22396;51.070;4.974;2023-07-31T07:57:40;6.07;;;3.35;;
33501;SDS011;22396;51.070;4.974;2023-07-31T08:00:08;7.40;;;3.10;;
33501;SDS011;22396;51.070;4.974;2023-07-31T08:02:35;7.47;;;2.90;;
33501;SDS011;22396;51.070;4.974;2023-07-31T08:05:00;8.20;;;2.92;;
33501;SDS011;22396;51.070;4.974;2023-07-31T08:07:26;11.18;;;3.55;;
33501;SDS011;22396;51.070;4.974;2023-07-31T08:09:53;5.72;;;2.47;;
33501;SDS011;22396;51.070;4.974;2023-07-31T08:12:19;7.20;;;2.85;;
33501;SDS011;22396;51.070;4.974;2023-07-31T08:14:44;8.88;;;2.80;;
33501;SDS011;22396;51.070;4.974;2023-07-31T08:17:09;10.73;;;3.63;;
33501;SDS011;22396;51.070;4.974;2023-07-31T08:19:37;10.77;;;3.45;;
33501;SDS011;22396;51.070;4.974;2023-07-31T08:22:02;8.55;;;3.05;;
33501;SDS011;22396;51.070;4.974;2023-07-31T08:24:27;8.23;;;3.22;;
33501;SDS011;22396;51.070;4.974;2023-07-31T08:26:53;6.05;;;3.15;;
33501;SDS011;22396;51.070;4.974;2023-07-31T08:29:18;10.52;;;4.43;;
33501;SDS011;22396;51.070;4.974;2023-07-31T08:31:46;6.93;;;3.05;;
33501;SDS011;22396;51.070;4.974;2023-07-31T08:34:11;7.75;;;2.78;;
33501;SDS011;22396;51.070;4.974;2023-07-31T08:36:36;12.35;;;3.97;;
33501;SDS011;22396;51.070;4.974;2023-07-31T08:39:01;9.57;;;3.17;;
33501;SDS011;22396;51.070;4.974;2023-07-31T08:41:27;7.07;;;2.88;;
33501;SDS011;22396;51.070;4.974;2023-07-31T08:43:52;7.95;;;3.45;;
33501;SDS011;22396;51.070;4.974;2023-07-31T08:46:18;7.32;;;2.75;;
33501;SDS011;22396;51.070;4.974;2023-07-31T08:48:44;6.90;;;2.92;;
33501;SDS011;22396;51.070;4.974;2023-07-31T08:51:10;8.77;;;2.95;;
33501;SDS011;22396;51.070;4.974;2023-07-31T08:53:35;8.57;;;2.83;;
33501;SDS011;22396;51.070;4.974;2023-07-31T08:56:03;7.40;;;2.33;;
33501;SDS011;22396;51.070;4.974;2023-07-31T08:58:31;7.07;;;2.80;;
33501;SDS011;22396;51.070;4.974;2023-07-31T09:00:57;7.05;;;2.83;;
33501;SDS011;22396;51.070;4.974;2023-07-31T09:03:23;10.68;;;2.35;;
33501;SDS011;22396;51.070;4.974;2023-07-31T09:05:49;3.97;;;2.13;;
33501;SDS011;22396;51.070;4.974;2023-07-31T09:08:17;5.07;;;2.03;;
33501;SDS011;22396;51.070;4.974;2023-07-31T09:10:43;6.60;;;1.92;;
33501;SDS011;22396;51.070;4.974;2023-07-31T09:13:09;6.60;;;2.03;;
33501;SDS011;22396;51.070;4.974;2023-07-31T09:15:35;3.45;;;1.95;;
33501;SDS011;22396;51.070;4.974;2023-07-31T09:18:04;4.40;;;1.98;;
33501;SDS011;22396;51.070;4.974;2023-07-31T09:20:30;6.40;;;2.53;;
33501;SDS011;22396;51.070;4.974;2023-07-31T09:22:56;5.15;;;1.85;;
33501;SDS011;22396;51.070;4.974;2023-07-31T09:25:23;6.65;;;2.42;;
33501;SDS011;22396;51.070;4.974;2023-07-31T09:27:49;6.50;;;2.17;;
33501;SDS011;22396;51.070;4.974;2023-07-31T09:30:18;5.50;;;1.98;;
33501;SDS011;22396;51.070;4.974;2023-07-31T09:32:44;6.78;;;2.28;;
33501;SDS011;22396;51.070;4.974;2023-07-31T09:37:40;4.90;;;2.40;;
33501;SDS011;22396;51.070;4.974;2023-07-31T09:40:06;4.82;;;1.88;;
33501;SDS011;22396;51.070;4.974;2023-07-31T09:42:31;5.68;;;2.22;;
33501;SDS011;22396;51.070;4.974;2023-07-31T09:45:11;7.40;;;2.10;;
33501;SDS011;22396;51.070;4.974;2023-07-31T09:47:37;7.63;;;2.33;;
33501;SDS011;22396;51.070;4.974;2023-07-31T09:50:06;7.78;;;2.40;;
33501;SDS011;22396;51.070;4.974;2023-07-31T09:52:32;5.65;;;2.28;;
33501;SDS011;22396;51.070;4.974;2023-07-31T09:54:57;5.60;;;2.28;;
33501;SDS011;22396;51.070;4.974;2023-07-31T09:57:25;9.10;;;2.83;;
33501;SDS011;22396;51.070;4.974;2023-07-31T09:59:50;7.22;;;2.33;;
33501;SDS011;22396;51.070;4.974;2023-07-31T10:02:20;8.73;;;2.83;;
33501;SDS011;22396;51.070;4.974;2023-07-31T10:04:46;7.22;;;2.22;;
33501;SDS011;22396;51.070;4.974;2023-07-31T10:07:13;5.38;;;2.42;;
33501;SDS011;22396;51.070;4.974;2023-07-31T10:09:39;7.82;;;2.30;;
33501;SDS011;22396;51.070;4.974;2023-07-31T10:12:07;7.57;;;2.47;;
33501;SDS011;22396;51.070;4.974;2023-07-31T10:14:36;6.07;;;2.53;;
33501;SDS011;22396;51.070;4.974;2023-07-31T10:17:07;12.15;;;3.92;;
33501;SDS011;22396;51.070;4.974;2023-07-31T10:19:33;5.20;;;2.70;;
33501;SDS011;22396;51.070;4.974;2023-07-31T10:21:59;5.57;;;2.10;;
33501;SDS011;22396;51.070;4.974;2023-07-31T10:24:25;3.42;;;1.98;;
33501;SDS011;22396;51.070;4.974;2023-07-31T10:26:51;5.80;;;2.40;;
33501;SDS011;22396;51.070;4.974;2023-07-31T10:29:17;6.05;;;2.03;;
33501;SDS011;22396;51.070;4.974;2023-07-31T10:31:43;6.53;;;2.10;;
33501;SDS011;22396;51.070;4.974;2023-07-31T10:34:09;4.93;;;1.67;;
33501;SDS011;22396;51.070;4.974;2023-07-31T10:36:34;3.00;;;1.83;;
33501;SDS011;22396;51.070;4.974;2023-07-31T10:39:00;5.97;;;2.20;;
33501;SDS011;22396;51.070;4.974;2023-07-31T10:41:29;5.90;;;2.13;;
33501;SDS011;22396;51.070;4.974;2023-07-31T10:44:02;6.25;;;2.40;;
33501;SDS011;22396;51.070;4.974;2023-07-31T10:46:27;5.50;;;2.10;;
33501;SDS011;22396;51.070;4.974;2023-07-31T10:48:57;4.75;;;2.22;;
33501;SDS011;22396;51.070;4.974;2023-07-31T10:51:23;5.82;;;2.10;;
33501;SDS011;22396;51.070;4.974;2023-07-31T10:53:49;6.32;;;2.30;;
33501;SDS011;22396;51.070;4.974;2023-07-31T10:56:16;6.85;;;2.50;;
33501;SDS011;22396;51.070;4.974;2023-07-31T10:58:46;4.00;;;2.00;;
33501;SDS011;22396;51.070;4.974;2023-07-31T11:01:11;7.38;;;2.40;;
33501;SDS011;22396;51.070;4.974;2023-07-31T11:03:43;8.13;;;2.90;;
33501;SDS011;22396;51.070;4.974;2023-07-31T11:06:09;7.70;;;2.80;;
33501;SDS011;22396;51.070;4.974;2023-07-31T11:08:35;7.90;;;2.42;;
33501;SDS011;22396;51.070;4.974;2023-07-31T11:11:07;5.07;;;2.10;;
33501;SDS011;22396;51.070;4.974;2023-07-31T11:13:51;6.35;;;2.70;;
33501;SDS011;22396;51.070;4.974;2023-07-31T11:16:22;5.63;;;2.28;;
33501;SDS011;22396;51.070;4.974;2023-07-31T11:18:48;7.57;;;3.20;;
33501;SDS011;22396;51.070;4.974;2023-07-31T11:21:21;9.13;;;2.88;;
33501;SDS011;22396;51.070;4.974;2023-07-31T11:23:51;6.97;;;2.85;;
33501;SDS011;22396;51.070;4.974;2023-07-31T11:26:17;8.52;;;2.65;;
33501;SDS011;22396;51.070;4.974;2023-07-31T11:28:42;8.50;;;3.25;;
33501;SDS011;22396;51.070;4.974;2023-07-31T11:31:08;8.73;;;2.92;;
33501;SDS011;22396;51.070;4.974;2023-07-31T11:33:34;6.38;;;2.60;;
33501;SDS011;22396;51.070;4.974;2023-07-31T11:35:59;7.85;;;3.70;;
33501;SDS011;22396;51.070;4.974;2023-07-31T11:38:31;9.20;;;3.42;;
33501;SDS011;22396;51.070;4.974;2023-07-31T11:40:58;11.05;;;2.80;;
33501;SDS011;22396;51.070;4.974;2023-07-31T11:43:24;8.65;;;3.67;;
33501;SDS011;22396;51.070;4.974;2023-07-31T11:45:57;8.73;;;3.30;;
33501;SDS011;22396;51.070;4.974;2023-07-31T11:48:23;7.60;;;3.20;;
33501;SDS011;22396;51.070;4.974;2023-07-31T11:50:49;9.48;;;2.85;;
33501;SDS011;22396;51.070;4.974;2023-07-31T11:53:16;6.53;;;3.30;;
33501;SDS011;22396;51.070;4.974;2023-07-31T11:55:42;9.63;;;3.42;;
33501;SDS011;22396;51.070;4.974;2023-07-31T11:58:10;8.70;;;3.40;;
33501;SDS011;22396;51.070;4.974;2023-07-31T12:00:36;10.02;;;3.30;;
33501;SDS011;22396;51.070;4.974;2023-07-31T12:03:01;11.50;;;3.22;;
33501;SDS011;22396;51.070;4.974;2023-07-31T12:05:26;7.63;;;3.00;;
33501;SDS011;22396;51.070;4.974;2023-07-31T12:07:54;10.95;;;3.90;;
33501;SDS011;22396;51.070;4.974;2023-07-31T12:10:23;11.07;;;3.65;;
33501;SDS011;22396;51.070;4.974;2023-07-31T12:15:45;10.77;;;3.55;;
33501;SDS011;22396;51.070;4.974;2023-07-31T12:18:11;9.93;;;2.95;;
33501;SDS011;22396;51.070;4.974;2023-07-31T12:20:47;8.07;;;3.70;;
33501;SDS011;22396;51.070;4.974;2023-07-31T12:23:17;10.50;;;3.85;;
33501;SDS011;22396;51.070;4.974;2023-07-31T12:25:46;11.82;;;3.33;;
33501;SDS011;22396;51.070;4.974;2023-07-31T12:28:13;6.65;;;2.67;;
33501;SDS011;22396;51.070;4.974;2023-07-31T12:30:39;11.18;;;3.58;;
33501;SDS011;22396;51.070;4.974;2023-07-31T12:33:13;7.95;;;3.20;;
33501;SDS011;22396;51.070;4.974;2023-07-31T12:35:40;14.80;;;3.20;;
33501;SDS011;22396;51.070;4.974;2023-07-31T12:38:06;9.52;;;3.20;;
33501;SDS011;22396;51.070;4.974;2023-07-31T12:40:36;11.82;;;3.58;;
33501;SDS011;22396;51.070;4.974;2023-07-31T12:43:10;7.95;;;3.00;;
33501;SDS011;22396;51.070;4.974;2023-07-31T12:45:35;7.30;;;3.13;;
33501;SDS011;22396;51.070;4.974;2023-07-31T12:48:01;10.60;;;3.17;;
33501;SDS011;22396;51.070;4.974;2023-07-31T12:50:27;8.00;;;3.30;;
33501;SDS011;22396;51.070;4.974;2023-07-31T12:52:58;7.65;;;3.15;;
33501;SDS011;22396;51.070;4.974;2023-07-31T12:55:23;8.45;;;3.22;;
33501;SDS011;22396;51.070;4.974;2023-07-31T12:57:49;9.05;;;3.20;;
33501;SDS011;22396;51.070;4.974;2023-07-31T13:00:14;12.77;;;3.15;;
33501;SDS011;22396;51.070;4.974;2023-07-31T13:02:39;8.68;;;3.47;;
33501;SDS011;22396;51.070;4.974;2023-07-31T13:05:05;12.52;;;3.78;;
33501;SDS011;22396;51.070;4.974;2023-07-31T13:07:31;5.47;;;2.85;;
33501;SDS011;22396;51.070;4.974;2023-07-31T13:09:56;8.48;;;2.95;;
33501;SDS011;22396;51.070;4.974;2023-07-31T13:12:21;8.23;;;2.80;;
33501;SDS011;22396;51.070;4.974;2023-07-31T13:14:49;11.35;;;3.50;;
33501;SDS011;22396;51.070;4.974;2023-07-31T13:17:17;8.75;;;4.13;;
33501;SDS011;22396;51.070;4.974;2023-07-31T13:19:42;8.85;;;3.30;;
33501;SDS011;22396;51.070;4.974;2023-07-31T13:22:08;12.73;;;3.25;;
33501;SDS011;22396;51.070;4.974;2023-07-31T13:24:33;7.82;;;3.55;;
33501;SDS011;22396;51.070;4.974;2023-07-31T13:26:58;6.25;;;3.38;;
33501;SDS011;22396;51.070;4.974;2023-07-31T13:29:23;6.55;;;2.75;;
33501;SDS011;22396;51.070;4.974;2023-07-31T13:31:49;10.13;;;3.00;;
33501;SDS011;22396;51.070;4.974;2023-07-31T13:34:14;9.65;;;3.17;;
33501;SDS011;22396;51.070;4.974;2023-07-31T13:36:40;11.13;;;3.50;;
33501;SDS011;22396;51.070;4.974;2023-07-31T13:39:06;9.50;;;3.05;;
33501;SDS011;22396;51.070;4.974;2023-07-31T13:41:32;8.63;;;3.08;;
33501;SDS011;22396;51.070;4.974;2023-07-31T13:43:57;9.13;;;2.58;;
33501;SDS011;22396;51.070;4.974;2023-07-31T13:46:22;6.03;;;2.90;;
33501;SDS011;22396;51.070;4.974;2023-07-31T13:48:48;8.57;;;3.50;;
33501;SDS011;22396;51.070;4.974;2023-07-31T13:51:13;7.03;;;3.17;;
33501;SDS011;22396;51.070;4.974;2023-07-31T13:53:46;6.68;;;3.08;;
33501;SDS011;22396;51.070;4.974;2023-07-31T13:56:12;5.55;;;2.72;;
33501;SDS011;22396;51.070;4.974;2023-07-31T13:58:37;6.95;;;3.13;;
33501;SDS011;22396;51.070;4.974;2023-07-31T14:01:06;8.80;;;2.53;;
33501;SDS011;22396;51.070;4.974;2023-07-31T14:03:31;9.68;;;2.90;;
33501;SDS011;22396;51.070;4.974;2023-07-31T14:05:56;6.43;;;2.65;;
33501;SDS011;22396;51.070;4.974;2023-07-31T14:08:22;6.82;;;2.50;;
33501;SDS011;22396;51.070;4.974;2023-07-31T14:10:49;5.47;;;2.10;;
33501;SDS011;22396;51.070;4.974;2023-07-31T14:13:15;5.97;;;2.28;;
33501;SDS011;22396;51.070;4.974;2023-07-31T14:15:45;6.30;;;2.63;;
33501;SDS011;22396;51.070;4.974;2023-07-31T14:18:11;7.05;;;2.38;;
33501;SDS011;22396;51.070;4.974;2023-07-31T14:20:36;6.68;;;2.47;;
33501;SDS011;22396;51.070;4.974;2023-07-31T14:23:04;6.45;;;2.60;;
33501;SDS011;22396;51.070;4.974;2023-07-31T14:25:30;8.48;;;2.53;;
33501;SDS011;22396;51.070;4.974;2023-07-31T14:27:55;7.00;;;2.85;;
33501;SDS011;22396;51.070;4.974;2023-07-31T14:30:20;4.45;;;2.05;;
33501;SDS011;22396;51.070;4.974;2023-07-31T14:32:48;7.35;;;2.10;;
33501;SDS011;22396;51.070;4.974;2023-07-31T14:35:13;6.03;;;2.10;;
33501;SDS011;22396;51.070;4.974;2023-07-31T14:37:42;11.43;;;2.15;;
33501;SDS011;22396;51.070;4.974;2023-07-31T14:40:08;6.53;;;2.33;;
33501;SDS011;22396;51.070;4.974;2023-07-31T14:42:34;4.95;;;2.10;;
33501;SDS011;22396;51.070;4.974;2023-07-31T14:44:59;5.72;;;2.30;;
33501;SDS011;22396;51.070;4.974;2023-07-31T14:47:24;4.68;;;2.05;;